createdAt,value
2022-08-22T00:00:17.737Z,2.30
2022-08-22T00:02:44.020Z,2.28
2022-08-22T00:03:02.741Z,1.90
2022-08-22T00:04:28.781Z,2.60
2022-08-22T00:08:53.529Z,2.60
2022-08-22T00:13:07.646Z,2.42
2022-08-22T00:17:21.133Z,3.13
2022-08-22T00:21:30.766Z,2.70
2022-08-22T00:25:44.423Z,3.08
2022-08-22T00:29:53.558Z,3.63
2022-08-22T00:34:12.140Z,2.63
2022-08-22T00:38:31.027Z,2.78
2022-08-22T00:42:53.622Z,2.70
2022-08-22T00:47:05.636Z,2.95
2022-08-22T00:51:19.034Z,2.70
2022-08-22T00:55:28.036Z,2.65
2022-08-22T00:59:47.710Z,2.65
2022-08-22T01:04:24.594Z,2.63
2022-08-22T01:08:48.071Z,2.92
2022-08-22T01:13:28.772Z,2.70
2022-08-22T01:17:33.122Z,2.55
2022-08-22T01:21:46.762Z,2.42
2022-08-22T01:26:12.529Z,2.67
2022-08-22T01:30:32.781Z,2.53
2022-08-22T01:35:03.692Z,2.95
2022-08-22T01:39:26.889Z,3.47
2022-08-22T01:44:00.038Z,2.40
2022-08-22T01:48:19.769Z,3.13
2022-08-22T01:52:36.357Z,3.47
2022-08-22T01:56:46.798Z,2.90
2022-08-22T02:00:57.730Z,2.78
2022-08-22T02:05:37.389Z,2.80
2022-08-22T02:09:48.089Z,2.50
2022-08-22T02:13:58.741Z,3.03
2022-08-22T02:18:06.455Z,2.83
2022-08-22T02:22:24.535Z,2.85
2022-08-22T02:26:44.870Z,2.75
2022-08-22T02:30:51.004Z,2.92
2022-08-22T02:35:01.477Z,3.10
2022-08-22T02:40:02.148Z,3.22
2022-08-22T02:44:17.202Z,3.15
2022-08-22T02:48:44.973Z,3.58
2022-08-22T02:52:58.467Z,2.93
2022-08-22T02:57:02.741Z,2.38
2022-08-22T03:01:15.146Z,2.90
2022-08-22T03:05:36.993Z,3.00
2022-08-22T03:09:47.998Z,2.65
2022-08-22T03:14:04.911Z,3.15
2022-08-22T03:18:25.736Z,2.83
2022-08-22T03:22:36.284Z,2.42
2022-08-22T03:27:31.400Z,2.83
2022-08-22T03:31:36.413Z,2.70
2022-08-22T03:35:44.189Z,3.00
2022-08-22T03:40:01.009Z,2.72
2022-08-22T03:44:24.293Z,2.70
2022-08-22T03:48:38.316Z,2.90
2022-08-22T03:53:07.127Z,2.78
2022-08-22T03:57:50.365Z,2.80
2022-08-22T04:02:24.694Z,2.97
2022-08-22T04:11:19.038Z,3.22
2022-08-22T04:15:58.064Z,3.58
2022-08-22T04:20:37.768Z,3.20
2022-08-22T04:25:08.421Z,3.20
2022-08-22T04:29:24.484Z,2.38
2022-08-22T04:33:29.204Z,2.67
2022-08-22T04:37:59.314Z,2.55
2022-08-22T04:42:31.669Z,2.78
2022-08-22T04:46:57.754Z,2.20
2022-08-22T04:51:13.002Z,2.25
2022-08-22T04:55:45.512Z,2.13
2022-08-22T04:59:47.406Z,3.45
2022-08-22T05:04:01.909Z,2.90
2022-08-22T05:08:10.039Z,3.05
2022-08-22T05:12:20.634Z,3.45
2022-08-22T05:16:28.525Z,3.00
2022-08-22T05:20:30.820Z,2.78
2022-08-22T05:24:44.128Z,2.80
2022-08-22T05:28:53.116Z,2.53
2022-08-22T05:33:03.925Z,3.05
2022-08-22T05:37:18.980Z,2.90
2022-08-22T05:41:25.040Z,3.10
2022-08-22T05:45:28.495Z,2.92
2022-08-22T05:49:38.909Z,2.60
2022-08-22T05:53:45.492Z,2.80
2022-08-22T05:57:52.341Z,3.50
2022-08-22T06:02:05.590Z,3.10
2022-08-22T06:06:14.933Z,2.90
2022-08-22T06:10:42.804Z,2.85
2022-08-22T06:14:53.835Z,2.83
2022-08-22T06:18:57.788Z,3.22
2022-08-22T06:23:02.034Z,2.80
2022-08-22T06:27:09.061Z,3.05
2022-08-22T06:31:19.497Z,3.33
2022-08-22T06:35:29.300Z,3.80
2022-08-22T06:39:38.203Z,3.83
2022-08-22T06:43:43.386Z,3.08
2022-08-22T06:47:52.222Z,3.35
2022-08-22T06:52:01.766Z,3.20
2022-08-22T06:56:07.522Z,3.33
2022-08-22T07:00:15.284Z,3.53
2022-08-22T07:04:17.574Z,3.40
2022-08-22T07:08:21.434Z,4.05
2022-08-22T07:12:29.156Z,4.25
2022-08-22T07:16:52.050Z,3.80
2022-08-22T07:20:57.597Z,3.78
2022-08-22T07:25:12.890Z,3.92
2022-08-22T07:29:29.007Z,3.63
2022-08-22T07:33:48.065Z,3.20
2022-08-22T07:37:59.994Z,4.28
2022-08-22T07:42:16.466Z,3.65
2022-08-22T07:46:50.397Z,3.47
2022-08-22T07:51:12.552Z,3.72
2022-08-22T07:55:19.834Z,4.35
2022-08-22T07:59:23.376Z,4.32
2022-08-22T08:03:29.045Z,3.67
2022-08-22T08:07:32.260Z,4.32
2022-08-22T08:11:40.465Z,3.85
2022-08-22T08:15:45.871Z,4.20
2022-08-22T08:19:48.149Z,3.50
2022-08-22T08:23:49.907Z,4.57
2022-08-22T08:28:10.612Z,3.58
2022-08-22T08:32:13.529Z,4.32
2022-08-22T08:36:33.305Z,4.40
2022-08-22T08:40:34.923Z,4.38
2022-08-22T08:44:49.478Z,3.83
2022-08-22T08:49:13.196Z,3.58
2022-08-22T08:53:31.315Z,3.70
2022-08-22T09:02:13.948Z,3.58
2022-08-22T09:06:52.697Z,3.95
2022-08-22T09:11:28.298Z,4.00
2022-08-22T09:16:04.748Z,3.22
2022-08-22T09:20:17.755Z,2.95
2022-08-22T09:24:48.826Z,3.10
2022-08-22T09:28:58.975Z,3.03
2022-08-22T09:33:11.727Z,3.20
2022-08-22T09:37:20.085Z,2.45
2022-08-22T09:41:36.609Z,2.80
2022-08-22T09:46:02.015Z,3.10
2022-08-22T09:50:32.466Z,2.80
2022-08-22T09:55:13.431Z,2.90
2022-08-22T09:59:35.691Z,2.22
2022-08-22T10:04:14.370Z,3.30
2022-08-22T10:08:39.771Z,2.30
2022-08-22T10:13:04.043Z,2.92
2022-08-22T10:17:21.889Z,2.55
2022-08-22T10:21:51.128Z,2.55
2022-08-22T10:26:22.797Z,2.70
2022-08-22T10:30:39.106Z,2.95
2022-08-22T10:34:53.697Z,2.80
2022-08-22T10:38:59.961Z,3.15
2022-08-22T10:43:29.850Z,2.40
2022-08-22T10:47:40.905Z,2.35
2022-08-22T10:51:57.063Z,2.53
2022-08-22T10:56:09.930Z,2.50
2022-08-22T11:00:27.107Z,2.60
2022-08-22T11:04:43.750Z,2.10
2022-08-22T11:08:56.773Z,2.50
2022-08-22T11:13:26.537Z,1.75
2022-08-22T11:18:16.043Z,1.85
2022-08-22T11:22:58.088Z,1.83
2022-08-22T11:27:17.755Z,2.05
2022-08-22T11:31:51.356Z,2.00
2022-08-22T11:36:04.593Z,2.03
2022-08-22T11:40:24.570Z,1.83
2022-08-22T11:44:32.139Z,2.60
2022-08-22T11:48:53.270Z,2.10
2022-08-22T11:53:32.235Z,1.63
2022-08-22T11:57:41.829Z,2.30
2022-08-22T12:02:13.164Z,1.67
2022-08-22T12:06:38.365Z,2.40
2022-08-22T12:10:57.837Z,2.20
2022-08-22T12:15:11.621Z,1.70
2022-08-22T12:19:35.459Z,2.35
2022-08-22T12:24:19.430Z,2.72
2022-08-22T12:28:44.993Z,2.58
2022-08-22T12:32:57.590Z,1.83
2022-08-22T12:37:19.458Z,2.13
2022-08-22T12:41:38.139Z,2.13
2022-08-22T12:45:56.374Z,1.65
2022-08-22T12:50:05.107Z,2.20
2022-08-22T12:54:44.249Z,2.28
2022-08-22T12:58:53.334Z,2.72
2022-08-22T13:03:03.778Z,2.17
2022-08-22T13:07:08.599Z,2.17
2022-08-22T13:11:22.375Z,2.03
2022-08-22T13:15:54.561Z,2.17
2022-08-22T13:20:09.485Z,2.15
2022-08-22T13:24:22.661Z,2.20
2022-08-22T13:28:44.217Z,2.40
2022-08-22T13:32:49.468Z,2.38
2022-08-22T13:36:54.041Z,2.22
2022-08-22T13:40:58.224Z,2.40
2022-08-22T13:45:05.466Z,2.25
2022-08-22T13:53:23.002Z,1.90
2022-08-22T13:57:36.136Z,1.98
2022-08-22T14:01:53.002Z,2.15
2022-08-22T14:05:58.819Z,2.20
2022-08-22T14:10:27.609Z,2.40
2022-08-22T14:14:33.759Z,2.00
2022-08-22T14:18:45.693Z,1.75
2022-08-22T14:23:00.977Z,2.08
2022-08-22T14:27:27.045Z,1.92
2022-08-22T14:31:30.687Z,2.58
2022-08-22T14:35:43.418Z,2.17
2022-08-22T14:40:02.156Z,1.80
2022-08-22T14:44:11.706Z,1.35
2022-08-22T14:48:30.410Z,2.03
2022-08-22T14:52:36.663Z,2.50
2022-08-22T14:56:40.916Z,1.70
2022-08-22T15:00:47.198Z,2.05
2022-08-22T15:04:53.765Z,2.15
2022-08-22T15:08:57.146Z,2.05
2022-08-22T15:13:03.007Z,2.40
2022-08-22T15:17:08.484Z,1.70
2022-08-22T15:21:21.090Z,2.13
2022-08-22T15:25:41.037Z,1.63
2022-08-22T15:29:55.778Z,1.98
2022-08-22T15:34:23.020Z,2.83
2022-08-22T15:38:38.435Z,2.08
2022-08-22T15:42:50.533Z,2.90
2022-08-22T15:46:52.192Z,2.10
2022-08-22T15:51:01.390Z,1.67
2022-08-22T15:55:26.680Z,2.10
2022-08-22T15:59:48.186Z,2.20
2022-08-22T16:04:00.137Z,2.45
2022-08-22T16:08:06.743Z,2.38
2022-08-22T16:12:12.328Z,1.90
2022-08-22T16:17:01.745Z,2.72
2022-08-22T16:21:13.641Z,2.30
2022-08-22T16:25:16.094Z,1.88
2022-08-22T16:29:41.479Z,2.35
2022-08-22T16:33:44.298Z,2.35
2022-08-22T16:37:49.927Z,2.60
2022-08-22T16:42:23.104Z,2.35
2022-08-22T16:46:37.041Z,1.80
2022-08-22T16:50:41.032Z,2.28
2022-08-22T16:54:46.270Z,2.05
2022-08-22T16:59:03.317Z,2.53
2022-08-22T17:03:47.769Z,2.08
2022-08-22T17:08:11.416Z,1.80
2022-08-22T17:12:50.495Z,2.10
2022-08-22T17:17:16.977Z,2.63
2022-08-22T17:21:28.442Z,2.03
2022-08-22T17:25:45.726Z,2.17
2022-08-22T17:29:50.196Z,2.20
2022-08-22T17:34:02.054Z,1.90
2022-08-22T17:38:30.494Z,2.30
2022-08-22T17:42:40.854Z,2.28
2022-08-22T17:47:14.991Z,2.03
2022-08-22T17:51:41.417Z,2.30
2022-08-22T17:56:12.182Z,2.00
2022-08-22T18:00:30.641Z,2.20
2022-08-22T18:04:44.431Z,2.15
2022-08-22T18:09:13.722Z,2.22
2022-08-22T18:13:49.532Z,2.28
2022-08-22T18:17:57.641Z,3.17
2022-08-22T18:22:05.346Z,3.05
2022-08-22T18:30:11.325Z,2.65
2022-08-22T18:34:30.010Z,2.63
2022-08-22T18:38:49.506Z,3.42
2022-08-22T18:42:54.607Z,2.72
2022-08-22T18:47:10.636Z,2.53
2022-08-22T18:51:24.643Z,2.95
2022-08-22T18:55:43.499Z,2.20
2022-08-22T19:00:05.987Z,1.98
2022-08-22T19:04:17.209Z,2.13
2022-08-22T19:08:44.204Z,2.53
2022-08-22T19:13:17.232Z,2.35
2022-08-22T19:17:30.969Z,2.83
2022-08-22T19:21:53.923Z,2.35
2022-08-22T19:26:23.422Z,3.03
2022-08-22T19:30:33.976Z,2.60
2022-08-22T19:34:46.945Z,2.65
2022-08-22T19:38:57.454Z,2.83
2022-08-22T19:42:59.684Z,2.70
2022-08-22T19:47:19.914Z,2.83
2022-08-22T19:51:21.472Z,3.95
2022-08-22T19:55:28.917Z,3.33
2022-08-22T19:59:50.494Z,2.78
2022-08-22T20:04:20.512Z,2.90
2022-08-22T20:08:38.599Z,3.22
2022-08-22T20:17:02.962Z,2.80
2022-08-22T20:21:04.717Z,3.40
2022-08-22T20:25:42.544Z,3.55
2022-08-22T20:29:49.131Z,3.58
2022-08-22T20:38:24.488Z,3.47
2022-08-22T20:42:31.242Z,4.13
2022-08-22T20:50:48.035Z,3.15
2022-08-22T20:55:00.392Z,3.20
2022-08-22T20:59:35.833Z,3.72
2022-08-22T21:03:43.331Z,3.55
2022-08-22T21:11:51.235Z,3.15
2022-08-22T21:16:02.499Z,3.55
2022-08-22T21:20:22.137Z,3.28
2022-08-22T21:24:23.756Z,3.70
2022-08-22T21:28:28.919Z,3.38
2022-08-22T21:32:40.354Z,3.20
2022-08-22T21:36:42.404Z,3.55
2022-08-22T21:40:44.464Z,2.83
2022-08-22T21:45:00.222Z,3.17
2022-08-22T21:49:05.281Z,2.83
2022-08-22T21:53:11.944Z,3.63
2022-08-22T22:01:31.626Z,3.50
2022-08-22T22:05:34.128Z,3.72
2022-08-22T22:09:35.748Z,3.38
2022-08-22T22:13:38.581Z,4.00
2022-08-22T22:17:40.178Z,3.30
2022-08-22T22:21:41.924Z,3.77
2022-08-22T22:25:44.923Z,3.40
2022-08-22T22:29:46.677Z,4.35
2022-08-22T22:33:48.377Z,3.80
2022-08-22T22:37:50.169Z,3.88
2022-08-22T22:41:51.770Z,4.07
2022-08-22T22:45:53.371Z,3.60
2022-08-22T22:49:56.073Z,4.07
2022-08-22T22:53:57.920Z,3.92
2022-08-22T22:58:00.066Z,3.75
2022-08-22T23:02:15.919Z,4.53
2022-08-22T23:06:20.836Z,4.55
2022-08-22T23:10:23.317Z,4.05
2022-08-22T23:14:25.353Z,4.07
2022-08-22T23:18:30.607Z,3.90
2022-08-22T23:22:33.863Z,4.60
2022-08-22T23:26:36.056Z,4.22
2022-08-22T23:30:38.322Z,4.13
2022-08-22T23:34:45.745Z,4.28
2022-08-22T23:38:49.580Z,4.32
2022-08-22T23:42:51.158Z,4.00
2022-08-22T23:46:53.706Z,4.18
2022-08-22T23:50:55.346Z,4.18
2022-08-22T23:54:56.941Z,4.35
2022-08-22T23:59:00.919Z,4.70
